Terminal Aerodrome Forecast
Issued by NWS Bismarck, ND

Home | Current Version | Previous Version | Text Only | Print | Product List | Glossary Off
Versions: 1 2 3 4 5 6 7 8 9 10 11 12 13 14 15 16 17 18 19 20 21 22 23 24 25 26

000
FTUS43 KBIS 030057 AAA
TAFISN
TAF AMD
KISN 030057Z 0301/0324 36018G24KT P6SM SCT010 BKN050
      TEMPO 0301/0303 3SM -RA BR BKN010 OVC025
     FM030400 02008KT P6SM OVC008
     FM031000 02007KT P6SM OVC015
     FM031500 06006KT P6SM BKN040=

USA.gov is the U.S. government's official web portal to all federal, state and local government web resources and services.